sensor_id;sensor_type;location;lat;lon;timestamp;P1;durP1;ratioP1;P2;durP2;ratioP2
21091;SDS011;10704;42.678;23.288;2022-07-22T00:00:11;8.13;;;4.65;;
21091;SDS011;10704;42.678;23.288;2022-07-22T00:02:39;11.32;;;4.60;;
21091;SDS011;10704;42.678;23.288;2022-07-22T00:05:05;7.25;;;4.15;;
21091;SDS011;10704;42.678;23.288;2022-07-22T00:07:32;11.38;;;4.00;;
21091;SDS011;10704;42.678;23.288;2022-07-22T00:09:58;9.75;;;4.28;;
21091;SDS011;10704;42.678;23.288;2022-07-22T00:12:24;9.82;;;4.97;;
21091;SDS011;10704;42.678;23.288;2022-07-22T00:14:50;13.02;;;4.80;;
21091;SDS011;10704;42.678;23.288;2022-07-22T00:17:16;7.10;;;4.45;;
21091;SDS011;10704;42.678;23.288;2022-07-22T00:19:41;12.35;;;4.38;;
21091;SDS011;10704;42.678;23.288;2022-07-22T00:22:07;10.23;;;4.70;;
21091;SDS011;10704;42.678;23.288;2022-07-22T00:24:33;8.93;;;5.80;;
21091;SDS011;10704;42.678;23.288;2022-07-22T00:26:59;10.15;;;4.63;;
21091;SDS011;10704;42.678;23.288;2022-07-22T00:29:25;7.72;;;5.18;;
21091;SDS011;10704;42.678;23.288;2022-07-22T00:31:51;8.10;;;4.40;;
21091;SDS011;10704;42.678;23.288;2022-07-22T00:34:17;11.25;;;4.68;;
21091;SDS011;10704;42.678;23.288;2022-07-22T00:36:43;8.70;;;5.03;;
21091;SDS011;10704;42.678;23.288;2022-07-22T00:39:09;11.15;;;4.68;;
21091;SDS011;10704;42.678;23.288;2022-07-22T00:41:35;11.63;;;4.90;;
21091;SDS011;10704;42.678;23.288;2022-07-22T00:44:03;14.25;;;5.18;;
21091;SDS011;10704;42.678;23.288;2022-07-22T00:46:30;8.60;;;5.05;;
21091;SDS011;10704;42.678;23.288;2022-07-22T00:48:57;10.30;;;5.90;;
21091;SDS011;10704;42.678;23.288;2022-07-22T00:51:24;13.23;;;6.28;;
21091;SDS011;10704;42.678;23.288;2022-07-22T00:53:51;11.60;;;6.07;;
21091;SDS011;10704;42.678;23.288;2022-07-22T00:56:18;13.95;;;5.85;;
21091;SDS011;10704;42.678;23.288;2022-07-22T00:58:46;10.50;;;5.80;;
21091;SDS011;10704;42.678;23.288;2022-07-22T01:01:14;12.73;;;5.50;;
21091;SDS011;10704;42.678;23.288;2022-07-22T01:03:40;10.93;;;6.47;;
21091;SDS011;10704;42.678;23.288;2022-07-22T01:06:06;10.82;;;6.45;;
21091;SDS011;10704;42.678;23.288;2022-07-22T01:08:32;12.95;;;5.75;;
21091;SDS011;10704;42.678;23.288;2022-07-22T01:11:09;14.20;;;6.22;;
21091;SDS011;10704;42.678;23.288;2022-07-22T01:13:36;12.55;;;6.53;;
21091;SDS011;10704;42.678;23.288;2022-07-22T01:16:03;16.42;;;6.38;;
21091;SDS011;10704;42.678;23.288;2022-07-22T01:18:30;9.55;;;6.00;;
21091;SDS011;10704;42.678;23.288;2022-07-22T01:20:56;10.40;;;6.70;;
21091;SDS011;10704;42.678;23.288;2022-07-22T01:23:22;15.32;;;6.38;;
21091;SDS011;10704;42.678;23.288;2022-07-22T01:25:49;10.75;;;6.20;;
21091;SDS011;10704;42.678;23.288;2022-07-22T01:28:14;13.65;;;7.22;;
21091;SDS011;10704;42.678;23.288;2022-07-22T01:30:40;11.25;;;5.93;;
21091;SDS011;10704;42.678;23.288;2022-07-22T01:33:06;13.98;;;6.53;;
21091;SDS011;10704;42.678;23.288;2022-07-22T01:35:32;9.75;;;5.80;;
21091;SDS011;10704;42.678;23.288;2022-07-22T01:37:58;16.70;;;6.63;;
21091;SDS011;10704;42.678;23.288;2022-07-22T01:40:24;12.77;;;6.75;;
21091;SDS011;10704;42.678;23.288;2022-07-22T01:42:50;13.10;;;6.50;;
21091;SDS011;10704;42.678;23.288;2022-07-22T01:45:16;12.80;;;6.30;;
21091;SDS011;10704;42.678;23.288;2022-07-22T01:47:42;14.13;;;6.85;;
21091;SDS011;10704;42.678;23.288;2022-07-22T01:50:10;11.60;;;6.32;;
21091;SDS011;10704;42.678;23.288;2022-07-22T01:52:38;13.52;;;6.53;;
21091;SDS011;10704;42.678;23.288;2022-07-22T01:55:05;15.40;;;6.93;;
21091;SDS011;10704;42.678;23.288;2022-07-22T01:57:33;13.27;;;6.38;;
21091;SDS011;10704;42.678;23.288;2022-07-22T02:00:08;11.00;;;6.78;;
21091;SDS011;10704;42.678;23.288;2022-07-22T02:02:41;14.23;;;6.57;;
21091;SDS011;10704;42.678;23.288;2022-07-22T02:05:08;14.60;;;6.93;;
21091;SDS011;10704;42.678;23.288;2022-07-22T02:07:35;12.57;;;7.28;;
21091;SDS011;10704;42.678;23.288;2022-07-22T02:10:02;10.35;;;6.50;;
21091;SDS011;10704;42.678;23.288;2022-07-22T02:12:32;14.35;;;7.32;;
21091;SDS011;10704;42.678;23.288;2022-07-22T02:14:58;16.45;;;7.30;;
21091;SDS011;10704;42.678;23.288;2022-07-22T02:17:24;14.50;;;6.88;;
21091;SDS011;10704;42.678;23.288;2022-07-22T02:19:50;13.60;;;6.43;;
21091;SDS011;10704;42.678;23.288;2022-07-22T02:22:17;16.83;;;7.18;;
21091;SDS011;10704;42.678;23.288;2022-07-22T02:24:45;16.40;;;6.70;;
21091;SDS011;10704;42.678;23.288;2022-07-22T02:27:12;13.88;;;6.97;;
21091;SDS011;10704;42.678;23.288;2022-07-22T02:29:39;10.82;;;6.65;;
21091;SDS011;10704;42.678;23.288;2022-07-22T02:32:05;13.63;;;6.47;;
21091;SDS011;10704;42.678;23.288;2022-07-22T02:34:31;14.50;;;6.85;;
21091;SDS011;10704;42.678;23.288;2022-07-22T02:36:57;12.65;;;7.30;;
21091;SDS011;10704;42.678;23.288;2022-07-22T02:39:23;13.93;;;6.43;;
21091;SDS011;10704;42.678;23.288;2022-07-22T02:41:49;12.90;;;6.63;;
21091;SDS011;10704;42.678;23.288;2022-07-22T02:44:15;12.60;;;6.93;;
21091;SDS011;10704;42.678;23.288;2022-07-22T02:46:41;15.75;;;7.88;;
21091;SDS011;10704;42.678;23.288;2022-07-22T02:49:12;15.30;;;7.78;;
21091;SDS011;10704;42.678;23.288;2022-07-22T02:51:38;12.13;;;6.50;;
21091;SDS011;10704;42.678;23.288;2022-07-22T02:54:05;16.23;;;8.02;;
21091;SDS011;10704;42.678;23.288;2022-07-22T02:56:31;17.35;;;6.95;;
21091;SDS011;10704;42.678;23.288;2022-07-22T02:58:57;11.75;;;6.95;;
21091;SDS011;10704;42.678;23.288;2022-07-22T03:01:23;16.90;;;6.53;;
21091;SDS011;10704;42.678;23.288;2022-07-22T03:03:53;15.40;;;6.53;;
21091;SDS011;10704;42.678;23.288;2022-07-22T03:06:21;13.98;;;7.30;;
21091;SDS011;10704;42.678;23.288;2022-07-22T03:08:54;11.45;;;6.32;;
21091;SDS011;10704;42.678;23.288;2022-07-22T03:11:20;10.68;;;6.50;;
21091;SDS011;10704;42.678;23.288;2022-07-22T03:13:46;11.98;;;6.32;;
21091;SDS011;10704;42.678;23.288;2022-07-22T03:16:12;10.05;;;7.03;;
21091;SDS011;10704;42.678;23.288;2022-07-22T03:18:38;12.95;;;6.15;;
21091;SDS011;10704;42.678;23.288;2022-07-22T03:21:04;10.88;;;6.72;;
21091;SDS011;10704;42.678;23.288;2022-07-22T03:23:30;13.57;;;6.57;;
21091;SDS011;10704;42.678;23.288;2022-07-22T03:25:57;15.52;;;6.88;;
21091;SDS011;10704;42.678;23.288;2022-07-22T03:28:23;14.80;;;6.60;;
21091;SDS011;10704;42.678;23.288;2022-07-22T03:30:51;13.13;;;6.80;;
21091;SDS011;10704;42.678;23.288;2022-07-22T03:33:17;19.10;;;7.05;;
21091;SDS011;10704;42.678;23.288;2022-07-22T03:35:43;12.32;;;6.22;;
21091;SDS011;10704;42.678;23.288;2022-07-22T03:38:09;12.93;;;7.65;;
21091;SDS011;10704;42.678;23.288;2022-07-22T03:40:36;13.50;;;7.53;;
21091;SDS011;10704;42.678;23.288;2022-07-22T03:43:03;15.57;;;7.10;;
21091;SDS011;10704;42.678;23.288;2022-07-22T03:45:30;17.90;;;7.45;;
21091;SDS011;10704;42.678;23.288;2022-07-22T03:47:56;14.98;;;7.70;;
21091;SDS011;10704;42.678;23.288;2022-07-22T03:50:25;16.42;;;8.43;;
21091;SDS011;10704;42.678;23.288;2022-07-22T03:52:51;16.50;;;8.30;;
21091;SDS011;10704;42.678;23.288;2022-07-22T03:55:17;13.52;;;7.40;;
21091;SDS011;10704;42.678;23.288;2022-07-22T03:57:44;13.25;;;8.10;;
21091;SDS011;10704;42.678;23.288;2022-07-22T04:00:26;17.27;;;8.20;;
21091;SDS011;10704;42.678;23.288;2022-07-22T04:02:52;12.88;;;7.63;;
21091;SDS011;10704;42.678;23.288;2022-07-22T04:05:45;19.50;;;8.50;;
21091;SDS011;10704;42.678;23.288;2022-07-22T04:08:13;16.38;;;7.93;;
21091;SDS011;10704;42.678;23.288;2022-07-22T04:10:39;15.63;;;7.55;;
21091;SDS011;10704;42.678;23.288;2022-07-22T04:13:05;12.55;;;7.82;;
21091;SDS011;10704;42.678;23.288;2022-07-22T04:15:41;19.73;;;10.55;;
21091;SDS011;10704;42.678;23.288;2022-07-22T04:18:07;13.45;;;8.80;;
21091;SDS011;10704;42.678;23.288;2022-07-22T04:20:33;14.57;;;9.15;;
21091;SDS011;10704;42.678;23.288;2022-07-22T04:23:26;14.27;;;7.60;;
21091;SDS011;10704;42.678;23.288;2022-07-22T04:26:04;15.75;;;7.60;;
21091;SDS011;10704;42.678;23.288;2022-07-22T04:28:34;14.48;;;8.10;;
21091;SDS011;10704;42.678;23.288;2022-07-22T04:31:01;16.45;;;7.78;;
21091;SDS011;10704;42.678;23.288;2022-07-22T04:33:29;14.82;;;7.10;;
21091;SDS011;10704;42.678;23.288;2022-07-22T04:35:55;15.60;;;7.60;;
21091;SDS011;10704;42.678;23.288;2022-07-22T04:38:22;11.00;;;7.07;;
21091;SDS011;10704;42.678;23.288;2022-07-22T04:41:06;12.85;;;7.38;;
21091;SDS011;10704;42.678;23.288;2022-07-22T04:43:34;20.98;;;7.68;;
21091;SDS011;10704;42.678;23.288;2022-07-22T04:45:59;13.25;;;7.28;;
21091;SDS011;10704;42.678;23.288;2022-07-22T04:48:30;15.38;;;7.50;;
21091;SDS011;10704;42.678;23.288;2022-07-22T04:51:00;17.58;;;9.02;;
21091;SDS011;10704;42.678;23.288;2022-07-22T04:53:28;15.25;;;8.45;;
21091;SDS011;10704;42.678;23.288;2022-07-22T04:55:54;14.60;;;8.00;;
21091;SDS011;10704;42.678;23.288;2022-07-22T04:58:20;13.15;;;7.55;;
21091;SDS011;10704;42.678;23.288;2022-07-22T05:00:47;14.75;;;7.78;;
21091;SDS011;10704;42.678;23.288;2022-07-22T05:03:13;11.05;;;7.90;;
21091;SDS011;10704;42.678;23.288;2022-07-22T05:05:41;21.02;;;8.32;;
21091;SDS011;10704;42.678;23.288;2022-07-22T05:08:06;18.52;;;7.35;;
21091;SDS011;10704;42.678;23.288;2022-07-22T05:10:33;12.68;;;7.82;;
21091;SDS011;10704;42.678;23.288;2022-07-22T05:12:59;18.17;;;8.38;;
21091;SDS011;10704;42.678;23.288;2022-07-22T05:15:25;18.92;;;8.25;;
21091;SDS011;10704;42.678;23.288;2022-07-22T05:17:51;21.77;;;9.75;;
21091;SDS011;10704;42.678;23.288;2022-07-22T05:20:24;18.70;;;8.00;;
21091;SDS011;10704;42.678;23.288;2022-07-22T05:22:50;17.63;;;7.53;;
21091;SDS011;10704;42.678;23.288;2022-07-22T05:25:21;19.95;;;8.43;;
21091;SDS011;10704;42.678;23.288;2022-07-22T05:27:51;15.85;;;8.65;;
21091;SDS011;10704;42.678;23.288;2022-07-22T05:30:23;20.10;;;7.70;;
21091;SDS011;10704;42.678;23.288;2022-07-22T05:32:51;20.60;;;8.55;;
21091;SDS011;10704;42.678;23.288;2022-07-22T05:35:27;12.98;;;7.50;;
21091;SDS011;10704;42.678;23.288;2022-07-22T05:37:53;14.35;;;7.35;;
21091;SDS011;10704;42.678;23.288;2022-07-22T05:40:19;15.57;;;8.32;;
21091;SDS011;10704;42.678;23.288;2022-07-22T05:42:46;14.82;;;8.07;;
21091;SDS011;10704;42.678;23.288;2022-07-22T05:45:12;14.27;;;8.35;;
21091;SDS011;10704;42.678;23.288;2022-07-22T05:47:38;20.33;;;8.65;;
21091;SDS011;10704;42.678;23.288;2022-07-22T05:50:04;29.17;;;9.63;;
21091;SDS011;10704;42.678;23.288;2022-07-22T05:52:32;14.40;;;8.52;;
21091;SDS011;10704;42.678;23.288;2022-07-22T05:55:00;20.60;;;9.15;;
21091;SDS011;10704;42.678;23.288;2022-07-22T05:57:26;19.15;;;8.55;;
21091;SDS011;10704;42.678;23.288;2022-07-22T05:59:52;16.02;;;8.45;;
21091;SDS011;10704;42.678;23.288;2022-07-22T06:02:18;17.52;;;8.60;;
21091;SDS011;10704;42.678;23.288;2022-07-22T06:04:47;18.75;;;8.35;;
21091;SDS011;10704;42.678;23.288;2022-07-22T06:07:15;26.65;;;9.65;;
21091;SDS011;10704;42.678;23.288;2022-07-22T06:09:42;18.92;;;8.63;;
21091;SDS011;10704;42.678;23.288;2022-07-22T06:12:11;16.98;;;8.15;;
21091;SDS011;10704;42.678;23.288;2022-07-22T06:14:37;16.55;;;8.30;;
21091;SDS011;10704;42.678;23.288;2022-07-22T06:17:03;17.85;;;8.10;;
21091;SDS011;10704;42.678;23.288;2022-07-22T06:19:29;15.80;;;8.70;;
21091;SDS011;10704;42.678;23.288;2022-07-22T06:21:55;16.73;;;7.95;;
21091;SDS011;10704;42.678;23.288;2022-07-22T06:24:24;17.58;;;7.93;;
21091;SDS011;10704;42.678;23.288;2022-07-22T06:26:50;17.13;;;8.07;;
21091;SDS011;10704;42.678;23.288;2022-07-22T06:29:16;23.20;;;7.72;;
21091;SDS011;10704;42.678;23.288;2022-07-22T06:31:42;17.23;;;7.60;;
21091;SDS011;10704;42.678;23.288;2022-07-22T06:34:08;16.48;;;8.13;;
21091;SDS011;10704;42.678;23.288;2022-07-22T06:36:52;19.70;;;8.23;;
21091;SDS011;10704;42.678;23.288;2022-07-22T06:39:18;15.38;;;7.32;;
21091;SDS011;10704;42.678;23.288;2022-07-22T06:42:10;13.75;;;6.90;;
21091;SDS011;10704;42.678;23.288;2022-07-22T06:44:55;17.42;;;6.80;;
21091;SDS011;10704;42.678;23.288;2022-07-22T06:47:37;14.25;;;6.82;;
21091;SDS011;10704;42.678;23.288;2022-07-22T06:50:04;17.33;;;6.80;;
21091;SDS011;10704;42.678;23.288;2022-07-22T06:52:32;17.08;;;7.68;;
21091;SDS011;10704;42.678;23.288;2022-07-22T06:54:59;16.52;;;8.45;;
21091;SDS011;10704;42.678;23.288;2022-07-22T06:57:31;16.25;;;7.57;;
21091;SDS011;10704;42.678;23.288;2022-07-22T06:59:57;17.77;;;7.07;;
21091;SDS011;10704;42.678;23.288;2022-07-22T07:02:25;13.77;;;6.47;;
21091;SDS011;10704;42.678;23.288;2022-07-22T07:04:50;13.65;;;6.75;;
21091;SDS011;10704;42.678;23.288;2022-07-22T07:07:17;13.65;;;7.90;;
21091;SDS011;10704;42.678;23.288;2022-07-22T07:09:58;9.48;;;6.30;;
21091;SDS011;10704;42.678;23.288;2022-07-22T07:12:33;13.35;;;5.88;;
21091;SDS011;10704;42.678;23.288;2022-07-22T07:15:08;16.35;;;6.07;;
21091;SDS011;10704;42.678;23.288;2022-07-22T07:17:35;11.60;;;6.18;;
21091;SDS011;10704;42.678;23.288;2022-07-22T07:20:07;14.93;;;5.90;;
21091;SDS011;10704;42.678;23.288;2022-07-22T07:22:33;12.48;;;6.45;;
21091;SDS011;10704;42.678;23.288;2022-07-22T07:25:03;14.02;;;6.38;;
21091;SDS011;10704;42.678;23.288;2022-07-22T07:27:31;12.45;;;6.70;;
21091;SDS011;10704;42.678;23.288;2022-07-22T07:29:58;12.05;;;6.03;;
21091;SDS011;10704;42.678;23.288;2022-07-22T07:32:24;13.80;;;6.03;;
21091;SDS011;10704;42.678;23.288;2022-07-22T07:34:50;9.00;;;5.90;;
21091;SDS011;10704;42.678;23.288;2022-07-22T07:37:16;16.23;;;7.07;;
21091;SDS011;10704;42.678;23.288;2022-07-22T07:39:42;12.02;;;6.53;;
21091;SDS011;10704;42.678;23.288;2022-07-22T07:42:08;18.60;;;7.30;;
21091;SDS011;10704;42.678;23.288;2022-07-22T07:44:34;15.45;;;6.45;;
21091;SDS011;10704;42.678;23.288;2022-07-22T07:47:01;16.55;;;7.00;;
21091;SDS011;10704;42.678;23.288;2022-07-22T07:49:27;16.95;;;7.03;;
21091;SDS011;10704;42.678;23.288;2022-07-22T07:51:53;16.25;;;7.57;;
21091;SDS011;10704;42.678;23.288;2022-07-22T07:54:21;15.23;;;7.55;;
21091;SDS011;10704;42.678;23.288;2022-07-22T07:56:47;13.20;;;5.40;;
21091;SDS011;10704;42.678;23.288;2022-07-22T07:59:14;12.10;;;7.60;;
21091;SDS011;10704;42.678;23.288;2022-07-22T08:01:41;13.63;;;7.82;;
21091;SDS011;10704;42.678;23.288;2022-07-22T08:04:08;13.50;;;6.65;;
21091;SDS011;10704;42.678;23.288;2022-07-22T08:06:34;16.67;;;7.53;;
21091;SDS011;10704;42.678;23.288;2022-07-22T08:09:00;11.88;;;7.18;;
21091;SDS011;10704;42.678;23.288;2022-07-22T08:11:32;10.05;;;6.25;;
21091;SDS011;10704;42.678;23.288;2022-07-22T08:14:18;8.63;;;5.32;;
21091;SDS011;10704;42.678;23.288;2022-07-22T08:17:10;11.00;;;5.70;;
21091;SDS011;10704;42.678;23.288;2022-07-22T08:19:36;8.45;;;5.30;;
21091;SDS011;10704;42.678;23.288;2022-07-22T08:22:03;13.88;;;5.90;;
21091;SDS011;10704;42.678;23.288;2022-07-22T08:24:32;11.90;;;5.70;;
21091;SDS011;10704;42.678;23.288;2022-07-22T08:27:07;7.55;;;5.32;;
21091;SDS011;10704;42.678;23.288;2022-07-22T08:29:33;9.20;;;5.05;;
21091;SDS011;10704;42.678;23.288;2022-07-22T08:31:59;12.30;;;4.95;;
21091;SDS011;10704;42.678;23.288;2022-07-22T08:34:25;9.75;;;4.80;;
21091;SDS011;10704;42.678;23.288;2022-07-22T08:36:51;10.57;;;4.65;;
21091;SDS011;10704;42.678;23.288;2022-07-22T08:39:17;13.35;;;5.43;;
21091;SDS011;10704;42.678;23.288;2022-07-22T08:41:43;11.68;;;4.60;;
21091;SDS011;10704;42.678;23.288;2022-07-22T08:44:09;10.68;;;5.22;;
21091;SDS011;10704;42.678;23.288;2022-07-22T08:46:36;10.40;;;4.70;;
21091;SDS011;10704;42.678;23.288;2022-07-22T08:49:25;10.95;;;5.40;;
21091;SDS011;10704;42.678;23.288;2022-07-22T08:51:52;12.50;;;5.35;;
21091;SDS011;10704;42.678;23.288;2022-07-22T08:54:21;9.32;;;5.10;;
21091;SDS011;10704;42.678;23.288;2022-07-22T08:56:47;10.00;;;5.20;;
21091;SDS011;10704;42.678;23.288;2022-07-22T08:59:14;16.02;;;6.00;;
21091;SDS011;10704;42.678;23.288;2022-07-22T09:02:22;11.88;;;5.60;;
21091;SDS011;10704;42.678;23.288;2022-07-22T09:07:37;8.10;;;5.28;;
21091;SDS011;10704;42.678;23.288;2022-07-22T09:10:29;10.27;;;5.47;;
21091;SDS011;10704;42.678;23.288;2022-07-22T09:13:13;12.55;;;5.05;;
21091;SDS011;10704;42.678;23.288;2022-07-22T09:15:47;11.23;;;5.45;;
21091;SDS011;10704;42.678;23.288;2022-07-22T09:18:47;9.90;;;5.45;;
21091;SDS011;10704;42.678;23.288;2022-07-22T09:21:28;14.65;;;7.28;;
21091;SDS011;10704;42.678;23.288;2022-07-22T09:24:30;12.18;;;6.05;;
21091;SDS011;10704;42.678;23.288;2022-07-22T09:27:06;11.40;;;5.15;;
21091;SDS011;10704;42.678;23.288;2022-07-22T09:29:50;13.02;;;5.18;;
21091;SDS011;10704;42.678;23.288;2022-07-22T09:32:18;14.63;;;5.18;;
21091;SDS011;10704;42.678;23.288;2022-07-22T09:35:07;9.77;;;5.60;;
21091;SDS011;10704;42.678;23.288;2022-07-22T09:37:47;15.18;;;5.40;;
21091;SDS011;10704;42.678;23.288;2022-07-22T09:40:18;11.88;;;5.55;;
21091;SDS011;10704;42.678;23.288;2022-07-22T09:42:52;7.53;;;4.82;;
21091;SDS011;10704;42.678;23.288;2022-07-22T09:45:25;12.05;;;5.05;;
21091;SDS011;10704;42.678;23.288;2022-07-22T09:47:58;7.28;;;4.38;;
21091;SDS011;10704;42.678;23.288;2022-07-22T09:50:52;9.40;;;4.63;;
21091;SDS011;10704;42.678;23.288;2022-07-22T09:53:43;8.75;;;4.85;;
21091;SDS011;10704;42.678;23.288;2022-07-22T09:56:11;8.77;;;5.43;;
21091;SDS011;10704;42.678;23.288;2022-07-22T09:58:38;8.95;;;4.93;;
21091;SDS011;10704;42.678;23.288;2022-07-22T10:01:17;9.63;;;5.38;;
21091;SDS011;10704;42.678;23.288;2022-07-22T10:03:44;7.75;;;5.43;;
21091;SDS011;10704;42.678;23.288;2022-07-22T10:06:15;10.68;;;5.20;;
21091;SDS011;10704;42.678;23.288;2022-07-22T10:08:42;8.57;;;5.80;;
21091;SDS011;10704;42.678;23.288;2022-07-22T10:11:08;9.20;;;6.07;;
21091;SDS011;10704;42.678;23.288;2022-07-22T10:13:37;11.43;;;6.00;;
21091;SDS011;10704;42.678;23.288;2022-07-22T10:16:05;8.00;;;5.20;;
21091;SDS011;10704;42.678;23.288;2022-07-22T10:18:32;13.35;;;6.43;;
21091;SDS011;10704;42.678;23.288;2022-07-22T10:21:09;12.45;;;6.30;;
21091;SDS011;10704;42.678;23.288;2022-07-22T10:23:36;9.38;;;5.18;;
21091;SDS011;10704;42.678;23.288;2022-07-22T10:26:57;7.82;;;4.90;;
21091;SDS011;10704;42.678;23.288;2022-07-22T10:29:24;8.23;;;4.97;;
21091;SDS011;10704;42.678;23.288;2022-07-22T10:34:41;9.30;;;5.40;;
21091;SDS011;10704;42.678;23.288;2022-07-22T10:40:18;8.35;;;5.22;;
21091;SDS011;10704;42.678;23.288;2022-07-22T10:45:32;8.15;;;5.32;;
21091;SDS011;10704;42.678;23.288;2022-07-22T10:48:15;8.20;;;5.20;;
21091;SDS011;10704;42.678;23.288;2022-07-22T10:51:16;7.40;;;5.35;;
21091;SDS011;10704;42.678;23.288;2022-07-22T10:56:21;6.30;;;5.07;;
21091;SDS011;10704;42.678;23.288;2022-07-22T10:58:51;10.00;;;4.85;;
21091;SDS011;10704;42.678;23.288;2022-07-22T11:01:26;10.25;;;5.10;;
21091;SDS011;10704;42.678;23.288;2022-07-22T11:03:54;9.10;;;5.55;;
21091;SDS011;10704;42.678;23.288;2022-07-22T11:06:25;8.75;;;5.20;;
21091;SDS011;10704;42.678;23.288;2022-07-22T11:08:59;10.50;;;4.82;;
21091;SDS011;10704;42.678;23.288;2022-07-22T11:11:32;9.63;;;4.68;;
21091;SDS011;10704;42.678;23.288;2022-07-22T11:14:00;13.05;;;5.20;;
21091;SDS011;10704;42.678;23.288;2022-07-22T11:16:27;12.48;;;5.72;;
21091;SDS011;10704;42.678;23.288;2022-07-22T11:18:59;12.60;;;5.13;;
21091;SDS011;10704;42.678;23.288;2022-07-22T11:21:28;12.48;;;5.20;;
21091;SDS011;10704;42.678;23.288;2022-07-22T11:23:56;7.15;;;4.88;;
21091;SDS011;10704;42.678;23.288;2022-07-22T11:27:08;7.57;;;4.88;;
21091;SDS011;10704;42.678;23.288;2022-07-22T11:29:33;10.82;;;5.25;;
21091;SDS011;10704;42.678;23.288;2022-07-22T11:32:06;9.70;;;4.80;;
21091;SDS011;10704;42.678;23.288;2022-07-22T11:34:36;9.15;;;5.35;;
21091;SDS011;10704;42.678;23.288;2022-07-22T11:37:04;8.27;;;5.28;;
21091;SDS011;10704;42.678;23.288;2022-07-22T11:39:30;8.60;;;5.25;;
21091;SDS011;10704;42.678;23.288;2022-07-22T11:41:58;10.13;;;5.40;;
21091;SDS011;10704;42.678;23.288;2022-07-22T11:44:29;7.07;;;5.13;;
21091;SDS011;10704;42.678;23.288;2022-07-22T11:46:56;9.32;;;5.32;;
21091;SDS011;10704;42.678;23.288;2022-07-22T11:49:26;8.65;;;5.28;;
21091;SDS011;10704;42.678;23.288;2022-07-22T11:51:59;6.10;;;4.95;;
21091;SDS011;10704;42.678;23.288;2022-07-22T11:54:26;7.45;;;4.60;;
21091;SDS011;10704;42.678;23.288;2022-07-22T11:56:52;6.80;;;5.18;;
21091;SDS011;10704;42.678;23.288;2022-07-22T11:59:18;8.48;;;4.63;;
21091;SDS011;10704;42.678;23.288;2022-07-22T12:01:45;8.65;;;4.70;;
21091;SDS011;10704;42.678;23.288;2022-07-22T12:04:22;6.20;;;5.03;;
21091;SDS011;10704;42.678;23.288;2022-07-22T12:06:49;9.32;;;4.93;;
21091;SDS011;10704;42.678;23.288;2022-07-22T12:09:16;8.70;;;5.10;;
21091;SDS011;10704;42.678;23.288;2022-07-22T12:11:51;10.45;;;5.20;;
21091;SDS011;10704;42.678;23.288;2022-07-22T12:14:19;7.40;;;4.72;;
21091;SDS011;10704;42.678;23.288;2022-07-22T12:17:05;5.70;;;4.93;;
21091;SDS011;10704;42.678;23.288;2022-07-22T12:19:38;8.82;;;5.85;;
21091;SDS011;10704;42.678;23.288;2022-07-22T12:22:08;8.07;;;5.15;;
21091;SDS011;10704;42.678;23.288;2022-07-22T12:27:13;9.70;;;4.72;;
21091;SDS011;10704;42.678;23.288;2022-07-22T12:29:41;14.75;;;4.80;;
21091;SDS011;10704;42.678;23.288;2022-07-22T12:32:16;9.23;;;4.95;;
21091;SDS011;10704;42.678;23.288;2022-07-22T12:35:02;8.85;;;5.43;;
21091;SDS011;10704;42.678;23.288;2022-07-22T12:37:33;8.07;;;5.53;;
21091;SDS011;10704;42.678;23.288;2022-07-22T12:40:10;9.13;;;5.30;;
21091;SDS011;10704;42.678;23.288;2022-07-22T12:42:43;7.95;;;5.13;;
21091;SDS011;10704;42.678;23.288;2022-07-22T12:45:13;8.20;;;5.30;;
21091;SDS011;10704;42.678;23.288;2022-07-22T12:47:42;7.65;;;5.20;;
21091;SDS011;10704;42.678;23.288;2022-07-22T12:50:21;8.23;;;5.95;;
21091;SDS011;10704;42.678;23.288;2022-07-22T12:52:49;8.85;;;5.43;;
21091;SDS011;10704;42.678;23.288;2022-07-22T12:55:16;9.00;;;5.35;;
21091;SDS011;10704;42.678;23.288;2022-07-22T12:57:42;9.75;;;5.22;;
21091;SDS011;10704;42.678;23.288;2022-07-22T13:00:08;12.40;;;5.13;;
21091;SDS011;10704;42.678;23.288;2022-07-22T13:02:35;8.00;;;5.38;;
21091;SDS011;10704;42.678;23.288;2022-07-22T13:05:02;8.25;;;4.72;;
21091;SDS011;10704;42.678;23.288;2022-07-22T13:07:29;7.55;;;4.70;;
21091;SDS011;10704;42.678;23.288;2022-07-22T13:09:54;9.25;;;5.18;;
21091;SDS011;10704;42.678;23.288;2022-07-22T13:12:20;9.10;;;5.10;;
21091;SDS011;10704;42.678;23.288;2022-07-22T13:14:46;8.70;;;4.88;;
21091;SDS011;10704;42.678;23.288;2022-07-22T13:17:12;11.50;;;5.20;;
21091;SDS011;10704;42.678;23.288;2022-07-22T13:19:38;8.50;;;4.78;;
21091;SDS011;10704;42.678;23.288;2022-07-22T13:22:04;7.22;;;4.90;;
21091;SDS011;10704;42.678;23.288;2022-07-22T13:24:30;10.27;;;5.30;;
21091;SDS011;10704;42.678;23.288;2022-07-22T13:26:55;10.15;;;5.43;;
21091;SDS011;10704;42.678;23.288;2022-07-22T13:29:21;9.05;;;4.70;;
21091;SDS011;10704;42.678;23.288;2022-07-22T13:31:47;9.93;;;5.20;;
21091;SDS011;10704;42.678;23.288;2022-07-22T13:34:14;7.97;;;5.35;;
21091;SDS011;10704;42.678;23.288;2022-07-22T13:36:40;10.43;;;5.50;;
21091;SDS011;10704;42.678;23.288;2022-07-22T13:39:06;9.35;;;5.60;;
21091;SDS011;10704;42.678;23.288;2022-07-22T13:41:32;10.35;;;4.88;;
21091;SDS011;10704;42.678;23.288;2022-07-22T13:47:45;19.98;;;5.47;;
21091;SDS011;10704;42.678;23.288;2022-07-22T13:50:11;5.88;;;4.85;;
21091;SDS011;10704;42.678;23.288;2022-07-22T13:52:37;14.13;;;5.68;;
21091;SDS011;10704;42.678;23.288;2022-07-22T13:55:03;13.13;;;5.82;;
21091;SDS011;10704;42.678;23.288;2022-07-22T13:57:30;9.63;;;4.80;;
21091;SDS011;10704;42.678;23.288;2022-07-22T13:59:56;8.55;;;5.00;;
21091;SDS011;10704;42.678;23.288;2022-07-22T14:02:22;7.78;;;4.50;;
21091;SDS011;10704;42.678;23.288;2022-07-22T14:04:48;9.55;;;4.97;;
21091;SDS011;10704;42.678;23.288;2022-07-22T14:07:14;7.53;;;5.70;;
21091;SDS011;10704;42.678;23.288;2022-07-22T14:09:40;9.43;;;5.28;;
21091;SDS011;10704;42.678;23.288;2022-07-22T14:12:06;8.95;;;5.30;;
21091;SDS011;10704;42.678;23.288;2022-07-22T14:14:33;7.13;;;5.32;;
21091;SDS011;10704;42.678;23.288;2022-07-22T14:16:59;10.18;;;5.38;;
21091;SDS011;10704;42.678;23.288;2022-07-22T14:19:24;8.55;;;5.03;;
21091;SDS011;10704;42.678;23.288;2022-07-22T14:21:50;7.90;;;4.90;;
21091;SDS011;10704;42.678;23.288;2022-07-22T14:24:16;7.72;;;4.85;;
21091;SDS011;10704;42.678;23.288;2022-07-22T14:26:42;12.38;;;5.55;;
21091;SDS011;10704;42.678;23.288;2022-07-22T14:29:08;11.50;;;4.47;;
21091;SDS011;10704;42.678;23.288;2022-07-22T14:31:34;13.02;;;5.80;;
21091;SDS011;10704;42.678;23.288;2022-07-22T14:34:01;8.75;;;5.30;;
21091;SDS011;10704;42.678;23.288;2022-07-22T14:36:27;7.32;;;5.13;;
21091;SDS011;10704;42.678;23.288;2022-07-22T14:38:53;7.53;;;5.30;;
21091;SDS011;10704;42.678;23.288;2022-07-22T14:41:19;6.93;;;4.93;;
21091;SDS011;10704;42.678;23.288;2022-07-22T14:43:46;10.27;;;5.00;;
21091;SDS011;10704;42.678;23.288;2022-07-22T14:46:12;13.57;;;5.32;;
21091;SDS011;10704;42.678;23.288;2022-07-22T14:48:38;7.45;;;4.97;;
21091;SDS011;10704;42.678;23.288;2022-07-22T14:51:06;9.45;;;4.60;;
21091;SDS011;10704;42.678;23.288;2022-07-22T14:53:32;6.55;;;4.65;;
21091;SDS011;10704;42.678;23.288;2022-07-22T14:55:58;8.13;;;4.75;;
21091;SDS011;10704;42.678;23.288;2022-07-22T14:58:24;10.02;;;5.05;;